createdAt,value
2022-10-19T00:01:07.446Z,101736.56
2022-10-19T00:03:35.431Z,101732.19
2022-10-19T00:06:10.421Z,101737.03
2022-10-19T00:08:36.833Z,101727.47
2022-10-19T00:11:03.300Z,101726.84
2022-10-19T00:13:29.737Z,101731.47
2022-10-19T00:15:56.136Z,101729.78
2022-10-19T00:18:22.544Z,101725.66
2022-10-19T00:20:48.968Z,101730.44
2022-10-19T00:23:15.413Z,101729.03
2022-10-19T00:25:41.780Z,101722.19
2022-10-19T00:28:08.221Z,101727.00
2022-10-19T00:30:38.422Z,101727.00
2022-10-19T00:33:04.960Z,101736.66
2022-10-19T00:35:31.352Z,101742.53
2022-10-19T00:37:57.768Z,101739.19
2022-10-19T00:40:24.205Z,101741.28
2022-10-19T00:42:54.432Z,101738.00
2022-10-19T00:45:20.856Z,101739.25
2022-10-19T00:47:47.373Z,101747.41
2022-10-19T00:50:14.877Z,101747.63
2022-10-19T00:52:41.554Z,101748.69
2022-10-19T00:55:08.567Z,101742.63
2022-10-19T00:57:35.201Z,101744.97
2022-10-19T01:00:03.460Z,101738.13
2022-10-19T01:02:29.845Z,101742.34
2022-10-19T01:04:56.265Z,101741.13
2022-10-19T01:07:24.046Z,101735.28
2022-10-19T01:09:50.806Z,101741.97
2022-10-19T01:12:25.761Z,101728.25
2022-10-19T01:15:08.781Z,101736.00
2022-10-19T01:17:56.762Z,101728.53
2022-10-19T01:20:41.721Z,101734.41
2022-10-19T01:23:43.585Z,101735.91
2022-10-19T01:26:19.017Z,101737.19
2022-10-19T01:28:54.479Z,101738.44
2022-10-19T01:31:27.594Z,101740.31
2022-10-19T01:34:12.429Z,101743.03
2022-10-19T01:36:41.897Z,101745.50
2022-10-19T01:39:11.244Z,101736.56
2022-10-19T01:41:47.890Z,101739.28
2022-10-19T01:44:20.434Z,101743.88
2022-10-19T01:46:52.791Z,101750.34
2022-10-19T01:49:45.369Z,101744.28
2022-10-19T01:52:15.090Z,101749.34
2022-10-19T01:54:45.143Z,101746.69
2022-10-19T01:57:13.125Z,101733.38
2022-10-19T01:59:40.021Z,101727.19
2022-10-19T02:02:09.511Z,101732.88
2022-10-19T02:04:37.300Z,101735.88
2022-10-19T02:07:04.458Z,101732.97
2022-10-19T02:09:30.811Z,101735.06
2022-10-19T02:11:59.359Z,101739.25
2022-10-19T02:14:29.406Z,101732.63
2022-10-19T02:17:01.984Z,101738.03
2022-10-19T02:19:28.348Z,101736.38
2022-10-19T02:21:56.361Z,101735.94
2022-10-19T02:24:22.679Z,101744.66
2022-10-19T02:26:49.188Z,101734.25
2022-10-19T02:29:16.214Z,101730.69
2022-10-19T02:31:43.039Z,101740.47
2022-10-19T02:34:10.219Z,101739.66
2022-10-19T02:36:36.583Z,101733.38
2022-10-19T02:39:03.333Z,101729.06
2022-10-19T02:41:34.247Z,101727.97
2022-10-19T02:44:05.849Z,101721.53
2022-10-19T02:46:37.568Z,101718.81
2022-10-19T02:49:04.571Z,101727.56
2022-10-19T02:51:32.851Z,101725.44
2022-10-19T02:54:01.246Z,101732.53
2022-10-19T02:56:30.627Z,101719.63
2022-10-19T02:58:57.000Z,101730.00
2022-10-19T03:01:23.428Z,101726.84
2022-10-19T03:03:49.819Z,101729.97
2022-10-19T03:06:16.197Z,101730.78
2022-10-19T03:08:42.552Z,101735.78
2022-10-19T03:11:08.961Z,101738.25
2022-10-19T03:13:35.348Z,101739.06
2022-10-19T03:16:08.604Z,101739.06
2022-10-19T03:18:34.972Z,101730.72
2022-10-19T03:21:02.208Z,101737.81
2022-10-19T03:23:29.385Z,101729.91
2022-10-19T03:25:55.739Z,101732.16
2022-10-19T03:28:22.092Z,101733.84
2022-10-19T03:30:48.413Z,101743.63
2022-10-19T03:33:15.122Z,101739.66
2022-10-19T03:35:41.533Z,101742.94
2022-10-19T03:38:07.884Z,101737.34
2022-10-19T03:40:34.303Z,101733.13
2022-10-19T03:43:00.641Z,101740.00
2022-10-19T03:45:27.004Z,101739.31
2022-10-19T03:47:53.321Z,101741.00
2022-10-19T03:50:21.195Z,101737.00
2022-10-19T03:52:49.604Z,101742.59
2022-10-19T03:55:16.633Z,101736.50
2022-10-19T03:57:42.994Z,101739.38
2022-10-19T04:00:10.321Z,101743.69
2022-10-19T04:02:36.673Z,101754.91
2022-10-19T04:05:03.086Z,101743.53
2022-10-19T04:07:29.481Z,101743.88
2022-10-19T04:09:55.862Z,101752.91
2022-10-19T04:12:22.213Z,101753.81
2022-10-19T04:14:58.135Z,101753.09
2022-10-19T04:17:25.052Z,101758.34
2022-10-19T04:19:51.401Z,101767.16
2022-10-19T04:22:17.754Z,101761.78
2022-10-19T04:24:44.105Z,101766.03
2022-10-19T04:27:10.482Z,101761.47
2022-10-19T04:29:36.822Z,101764.59
2022-10-19T04:32:03.178Z,101762.75
2022-10-19T04:34:29.578Z,101751.69
2022-10-19T04:36:59.202Z,101756.09
2022-10-19T04:39:25.571Z,101752.53
2022-10-19T04:41:51.994Z,101749.88
2022-10-19T04:44:18.426Z,101753.91
2022-10-19T04:46:44.822Z,101756.03
2022-10-19T04:49:11.323Z,101750.50
2022-10-19T04:51:38.054Z,101744.69
2022-10-19T04:54:04.809Z,101743.72
2022-10-19T04:56:32.467Z,101744.44
2022-10-19T04:59:02.014Z,101747.84
2022-10-19T05:01:29.328Z,101750.69
2022-10-19T05:06:42.791Z,101756.81
2022-10-19T05:09:09.255Z,101754.69
2022-10-19T05:11:35.678Z,101751.47
2022-10-19T05:14:02.086Z,101753.75
2022-10-19T05:16:28.598Z,101757.69
2022-10-19T05:18:59.632Z,101751.75
2022-10-19T05:21:27.650Z,101753.97
2022-10-19T05:23:54.810Z,101756.25
2022-10-19T05:26:22.951Z,101748.63
2022-10-19T05:28:56.707Z,101749.47
2022-10-19T05:31:24.738Z,101746.16
2022-10-19T05:33:51.310Z,101749.84
2022-10-19T05:36:27.597Z,101745.59
2022-10-19T05:38:55.043Z,101754.59
2022-10-19T05:41:22.265Z,101756.00
2022-10-19T05:43:52.741Z,101757.94
2022-10-19T05:46:19.121Z,101756.50
2022-10-19T05:48:46.314Z,101767.00
2022-10-19T05:51:13.583Z,101758.75
2022-10-19T05:53:40.782Z,101755.25
2022-10-19T05:56:08.063Z,101754.25
2022-10-19T05:58:35.031Z,101756.00
2022-10-19T06:01:01.991Z,101758.53
2022-10-19T06:03:28.628Z,101761.88
2022-10-19T06:05:55.492Z,101760.59
2022-10-19T06:08:22.857Z,101769.38
2022-10-19T06:10:49.561Z,101758.28
2022-10-19T06:13:16.885Z,101761.38
2022-10-19T06:15:43.566Z,101760.66
2022-10-19T06:18:11.220Z,101762.47
2022-10-19T06:20:38.842Z,101768.00
2022-10-19T06:23:05.705Z,101764.94
2022-10-19T06:25:32.586Z,101764.81
2022-10-19T06:27:59.662Z,101759.28
2022-10-19T06:30:26.607Z,101766.63
2022-10-19T06:32:53.327Z,101771.72
2022-10-19T06:35:20.127Z,101772.78
2022-10-19T06:37:46.547Z,101781.19
2022-10-19T06:40:13.085Z,101775.00
2022-10-19T06:42:39.501Z,101783.75
2022-10-19T06:45:09.859Z,101787.94
2022-10-19T06:47:37.243Z,101787.75
2022-10-19T06:50:05.017Z,101795.28
2022-10-19T06:52:32.112Z,101784.03
2022-10-19T06:55:00.091Z,101792.59
2022-10-19T06:57:26.522Z,101794.69
2022-10-19T06:59:53.737Z,101784.31
2022-10-19T07:02:20.238Z,101785.34
2022-10-19T07:04:46.590Z,101786.59
2022-10-19T07:07:12.984Z,101785.75
2022-10-19T07:09:39.355Z,101788.47
2022-10-19T07:12:05.841Z,101791.38
2022-10-19T07:14:38.534Z,101792.19
2022-10-19T07:17:07.678Z,101795.94
2022-10-19T07:19:34.385Z,101788.88
2022-10-19T07:22:00.834Z,101783.44
2022-10-19T07:24:27.230Z,101796.78
2022-10-19T07:26:53.577Z,101789.72
2022-10-19T07:29:19.965Z,101798.66
2022-10-19T07:31:46.334Z,101808.44
2022-10-19T07:34:13.889Z,101801.13
2022-10-19T07:36:44.765Z,101814.66
2022-10-19T07:39:12.526Z,101810.09
2022-10-19T07:41:38.988Z,101815.53
2022-10-19T07:44:05.354Z,101811.97
2022-10-19T07:46:37.030Z,101818.84
2022-10-19T07:49:04.439Z,101825.94
2022-10-19T07:51:30.788Z,101827.59
2022-10-19T07:54:00.139Z,101824.69
2022-10-19T07:56:27.305Z,101823.44
2022-10-19T07:58:54.712Z,101824.88
2022-10-19T08:01:25.190Z,101824.66
2022-10-19T08:06:38.863Z,101832.53
2022-10-19T08:09:05.387Z,101828.34
2022-10-19T08:11:32.824Z,101827.06
2022-10-19T08:13:59.386Z,101829.16
2022-10-19T08:16:27.565Z,101835.78
2022-10-19T08:18:56.508Z,101838.06
2022-10-19T08:21:22.959Z,101833.03
2022-10-19T08:23:49.387Z,101831.34
2022-10-19T08:26:15.727Z,101829.84
2022-10-19T08:28:42.074Z,101827.34
2022-10-19T08:31:19.280Z,101833.97
2022-10-19T08:33:45.894Z,101827.91
2022-10-19T08:36:13.208Z,101818.88
2022-10-19T08:38:40.347Z,101819.06
2022-10-19T08:41:18.280Z,101818.44
2022-10-19T08:43:55.459Z,101815.66
2022-10-19T08:46:30.090Z,101812.28
2022-10-19T08:48:56.456Z,101813.91
2022-10-19T08:51:23.069Z,101813.47
2022-10-19T08:53:53.593Z,101813.66
2022-10-19T08:56:45.941Z,101821.13
2022-10-19T08:59:15.195Z,101807.72
2022-10-19T09:01:44.691Z,101812.72
2022-10-19T09:04:14.161Z,101813.91
2022-10-19T09:06:48.570Z,101808.66
2022-10-19T09:09:15.278Z,101815.06
2022-10-19T09:11:47.350Z,101817.94
2022-10-19T09:14:36.361Z,101822.50
2022-10-19T09:17:04.076Z,101814.28
2022-10-19T09:19:31.968Z,101810.06
2022-10-19T09:22:07.765Z,101806.44
2022-10-19T09:24:39.320Z,101815.56
2022-10-19T09:27:06.011Z,101813.00
2022-10-19T09:29:41.400Z,101816.25
2022-10-19T09:32:15.694Z,101814.41
2022-10-19T09:34:45.214Z,101808.44
2022-10-19T09:37:18.837Z,101818.66
2022-10-19T09:39:53.964Z,101807.75
2022-10-19T09:42:21.870Z,101807.94
2022-10-19T09:44:50.161Z,101812.94
2022-10-19T09:47:16.559Z,101816.78
2022-10-19T09:49:44.468Z,101820.00
2022-10-19T09:52:23.294Z,101815.75
2022-10-19T09:55:12.986Z,101814.66
2022-10-19T09:57:42.944Z,101819.88
2022-10-19T10:00:18.789Z,101827.19
2022-10-19T10:02:55.625Z,101829.34
2022-10-19T10:05:38.802Z,101830.16
2022-10-19T10:08:12.434Z,101822.59
2022-10-19T10:10:42.486Z,101824.25
2022-10-19T10:13:16.890Z,101829.22
2022-10-19T10:15:44.398Z,101820.84
2022-10-19T10:18:14.246Z,101832.91
2022-10-19T10:20:55.296Z,101828.66
2022-10-19T10:23:23.862Z,101825.25
2022-10-19T10:25:50.213Z,101826.06
2022-10-19T10:28:21.188Z,101831.50
2022-10-19T10:30:48.725Z,101823.56
2022-10-19T10:33:43.844Z,101825.69
2022-10-19T10:36:11.411Z,101826.97
2022-10-19T10:38:45.646Z,101819.06
2022-10-19T10:41:11.977Z,101827.47
2022-10-19T10:43:48.927Z,101831.25
2022-10-19T10:46:17.073Z,101830.66
2022-10-19T10:48:44.794Z,101832.28
2022-10-19T10:51:22.994Z,101826.28
2022-10-19T10:53:49.505Z,101827.94
2022-10-19T10:56:24.203Z,101823.56
2022-10-19T10:59:02.547Z,101817.06
2022-10-19T11:01:32.872Z,101806.19
2022-10-19T11:04:01.246Z,101802.38
2022-10-19T11:06:27.647Z,101804.03
2022-10-19T11:09:01.807Z,101803.22
2022-10-19T11:11:32.878Z,101811.97
2022-10-19T11:14:04.562Z,101803.59
2022-10-19T11:16:38.590Z,101801.44
2022-10-19T11:22:21.310Z,101786.06
2022-10-19T11:25:09.107Z,101779.94
2022-10-19T11:27:47.634Z,101779.44
2022-10-19T11:30:16.940Z,101780.63
2022-10-19T11:32:46.095Z,101768.44
2022-10-19T11:35:30.966Z,101775.06
2022-10-19T11:38:20.855Z,101766.66
2022-10-19T11:43:41.515Z,101758.84
2022-10-19T11:46:17.052Z,101758.47
2022-10-19T11:49:03.282Z,101758.97
2022-10-19T11:51:49.803Z,101751.50
2022-10-19T11:54:25.023Z,101754.09
2022-10-19T11:57:04.077Z,101748.19
2022-10-19T11:59:50.176Z,101749.81
2022-10-19T12:02:16.652Z,101751.47
2022-10-19T12:05:04.584Z,101753.63
2022-10-19T12:07:34.048Z,101741.06
2022-10-19T12:10:03.391Z,101733.59
2022-10-19T12:12:30.905Z,101733.28
2022-10-19T12:15:03.127Z,101725.81
2022-10-19T12:17:31.386Z,101726.97
2022-10-19T12:20:03.236Z,101729.59
2022-10-19T12:22:30.180Z,101729.50
2022-10-19T12:24:58.619Z,101731.88
2022-10-19T12:27:29.823Z,101730.47
2022-10-19T12:29:58.391Z,101724.66
2022-10-19T12:32:25.002Z,101723.47
2022-10-19T12:35:07.609Z,101726.44
2022-10-19T12:37:52.940Z,101728.56
2022-10-19T12:40:26.052Z,101725.28
2022-10-19T12:43:10.622Z,101721.72
2022-10-19T12:45:41.396Z,101714.63
2022-10-19T12:48:20.121Z,101712.16
2022-10-19T12:50:49.319Z,101713.22
2022-10-19T12:53:30.927Z,101706.94
2022-10-19T12:56:09.925Z,101708.03
2022-10-19T12:58:36.264Z,101699.00
2022-10-19T13:01:05.237Z,101703.41
2022-10-19T13:03:36.821Z,101701.72
2022-10-19T13:06:11.005Z,101699.00
2022-10-19T13:08:52.657Z,101687.56
2022-10-19T13:11:19.682Z,101694.06
2022-10-19T13:13:57.359Z,101677.13
2022-10-19T13:16:29.723Z,101688.00
2022-10-19T13:18:58.927Z,101678.22
2022-10-19T13:21:45.639Z,101683.66
2022-10-19T13:24:24.166Z,101689.31
2022-10-19T13:27:02.631Z,101688.25
2022-10-19T13:29:49.277Z,101682.81
2022-10-19T13:32:30.924Z,101672.78
2022-10-19T13:35:15.958Z,101676.56
2022-10-19T13:37:43.213Z,101665.91
2022-10-19T13:40:23.741Z,101666.75
2022-10-19T13:42:57.904Z,101658.00
2022-10-19T13:45:25.072Z,101660.13
2022-10-19T13:47:55.198Z,101664.97
2022-10-19T13:50:27.571Z,101656.22
2022-10-19T13:53:17.553Z,101650.19
2022-10-19T13:55:47.476Z,101654.22
2022-10-19T13:58:31.042Z,101655.50
2022-10-19T14:01:06.524Z,101656.00
2022-10-19T14:03:51.244Z,101645.59
2022-10-19T14:06:27.507Z,101660.25
2022-10-19T14:08:55.053Z,101654.00
2022-10-19T14:11:36.412Z,101645.84
2022-10-19T14:14:11.756Z,101639.69
2022-10-19T14:16:50.536Z,101644.19
2022-10-19T14:19:28.912Z,101644.03
2022-10-19T14:22:00.001Z,101637.97
2022-10-19T14:24:31.969Z,101631.09
2022-10-19T14:27:05.988Z,101631.31
2022-10-19T14:29:35.871Z,101635.31
2022-10-19T14:32:02.352Z,101617.53
2022-10-19T14:34:28.780Z,101622.38
2022-10-19T14:36:55.860Z,101619.25
2022-10-19T14:39:32.719Z,101617.53
2022-10-19T14:42:06.194Z,101621.28
2022-10-19T14:44:38.490Z,101613.53
2022-10-19T14:47:24.001Z,101617.50
2022-10-19T14:49:50.775Z,101614.88
2022-10-19T14:52:22.831Z,101613.88
2022-10-19T14:54:50.692Z,101617.75
2022-10-19T14:57:20.416Z,101614.53
2022-10-19T14:59:49.927Z,101617.84
2022-10-19T15:02:19.433Z,101620.31
2022-10-19T15:04:46.423Z,101619.47
2022-10-19T15:07:18.812Z,101615.69
2022-10-19T15:09:49.866Z,101606.94
2022-10-19T15:12:18.089Z,101603.63
2022-10-19T15:14:45.729Z,101594.06
2022-10-19T15:17:24.233Z,101609.25
2022-10-19T15:19:51.389Z,101601.81
2022-10-19T15:22:22.573Z,101607.19
2022-10-19T15:24:55.582Z,101602.72
2022-10-19T15:27:23.229Z,101598.03
2022-10-19T15:29:56.822Z,101599.81
2022-10-19T15:32:24.597Z,101600.81
2022-10-19T15:34:51.224Z,101599.31
2022-10-19T15:37:20.357Z,101595.69
2022-10-19T15:39:47.269Z,101587.41
2022-10-19T15:42:37.364Z,101587.31
2022-10-19T15:45:04.997Z,101581.16
2022-10-19T15:47:31.545Z,101586.75
2022-10-19T15:50:00.037Z,101588.56
2022-10-19T15:52:28.089Z,101596.03
2022-10-19T15:54:56.052Z,101584.47
2022-10-19T15:57:31.595Z,101585.09
2022-10-19T15:59:59.078Z,101594.69
2022-10-19T16:02:25.906Z,101585.50
2022-10-19T16:04:53.678Z,101580.91
2022-10-19T16:07:24.746Z,101589.94
2022-10-19T16:09:51.346Z,101584.22
2022-10-19T16:12:17.707Z,101585.91
2022-10-19T16:14:44.052Z,101575.03
2022-10-19T16:17:13.082Z,101573.16
2022-10-19T16:19:39.457Z,101577.28
2022-10-19T16:22:05.878Z,101581.66
2022-10-19T20:11:51.060Z,101497.88
2022-10-19T20:14:18.811Z,101501.59
2022-10-19T20:16:45.243Z,101496.63
2022-10-19T20:19:13.287Z,101497.00
2022-10-19T20:21:40.495Z,101491.00
2022-10-19T20:24:07.502Z,101494.09
2022-10-19T20:26:34.200Z,101499.88
2022-10-19T20:29:01.984Z,101497.38
2022-10-19T20:31:29.497Z,101493.22
2022-10-19T20:33:55.832Z,101477.50
2022-10-19T20:36:24.013Z,101485.78
2022-10-19T20:38:57.837Z,101489.69
2022-10-19T20:41:25.225Z,101475.59
2022-10-19T20:43:51.866Z,101482.00
2022-10-19T20:46:21.148Z,101484.09
2022-10-19T20:48:47.912Z,101480.75
2022-10-19T20:51:15.915Z,101479.94
2022-10-19T20:53:43.634Z,101476.59
2022-10-19T20:56:10.598Z,101468.72
2022-10-19T20:58:40.254Z,101464.34
2022-10-19T21:01:11.204Z,101455.66
2022-10-19T21:03:37.660Z,101460.38
2022-10-19T21:06:05.468Z,101452.31
2022-10-19T21:08:33.152Z,101456.25
2022-10-19T21:10:59.558Z,101459.97
2022-10-19T21:13:26.267Z,101461.22
2022-10-19T21:15:52.669Z,101461.59
2022-10-19T21:18:19.164Z,101459.94
2022-10-19T21:20:45.557Z,101450.63
2022-10-19T21:23:11.964Z,101449.97
2022-10-19T21:25:38.312Z,101448.50
2022-10-19T21:28:04.753Z,101452.44
2022-10-19T21:30:31.326Z,101447.47
2022-10-19T21:32:58.421Z,101447.88
2022-10-19T21:35:24.744Z,101456.97
2022-10-19T21:37:51.236Z,101454.03
2022-10-19T21:40:17.589Z,101457.75
2022-10-19T21:42:45.089Z,101446.38
2022-10-19T21:45:29.060Z,101444.91
2022-10-19T21:47:56.476Z,101440.75
2022-10-19T21:50:22.823Z,101447.34
2022-10-19T21:52:49.168Z,101444.03
2022-10-19T21:55:15.580Z,101429.31
2022-10-19T21:57:41.975Z,101427.84
2022-10-19T22:00:08.601Z,101429.28
2022-10-19T22:02:34.927Z,101428.00
2022-10-19T22:05:01.531Z,101424.06
2022-10-19T22:07:27.864Z,101417.44
2022-10-19T22:09:54.968Z,101417.19
2022-10-19T22:12:21.518Z,101409.53
2022-10-19T22:14:47.947Z,101405.56
2022-10-19T22:17:14.296Z,101397.06
2022-10-19T22:19:40.623Z,101396.63
2022-10-19T22:22:06.984Z,101392.03
2022-10-19T22:24:34.760Z,101386.44
2022-10-19T22:27:03.626Z,101379.59
2022-10-19T22:29:32.383Z,101381.00
2022-10-19T22:31:58.781Z,101377.88
2022-10-19T22:34:25.164Z,101387.34
2022-10-19T22:36:51.494Z,101388.56
2022-10-19T22:39:17.939Z,101377.38
2022-10-19T22:41:44.390Z,101376.75
2022-10-19T22:44:10.741Z,101381.69
2022-10-19T22:46:37.089Z,101377.72
2022-10-19T22:49:03.569Z,101369.88
2022-10-19T22:51:29.996Z,101370.25
2022-10-19T22:53:56.489Z,101374.97
2022-10-19T22:56:26.248Z,101369.78
2022-10-19T22:58:52.629Z,101370.16
2022-10-19T23:01:19.491Z,101366.00
2022-10-19T23:03:45.982Z,101360.22
2022-10-19T23:06:13.943Z,101362.03
2022-10-19T23:08:40.334Z,101358.09
2022-10-19T23:11:07.225Z,101361.78
2022-10-19T23:13:33.653Z,101365.06
2022-10-19T23:16:00.019Z,101360.09
2022-10-19T23:18:26.370Z,101358.63
2022-10-19T23:20:59.733Z,101372.41
2022-10-19T23:23:26.654Z,101373.63
2022-10-19T23:26:04.104Z,101364.09
2022-10-19T23:28:31.054Z,101353.75
2022-10-19T23:30:58.540Z,101353.31
2022-10-19T23:33:25.726Z,101351.84
2022-10-19T23:35:54.482Z,101350.41
2022-10-19T23:38:20.858Z,101356.97
2022-10-19T23:40:49.362Z,101359.00
2022-10-19T23:43:15.762Z,101351.72
2022-10-19T23:45:42.088Z,101354.78
2022-10-19T23:48:08.498Z,101351.03
2022-10-19T23:50:34.898Z,101350.56
2022-10-19T23:53:01.247Z,101340.63
2022-10-19T23:55:27.598Z,101343.03
2022-10-19T23:57:53.963Z,101341.09
